sensor_id;sensor_type;location;lat;lon;timestamp;temperature;humidity
1379;DHT22;683;48.738;9.226;2022-07-25T00:00:05;21.00;94.20
1379;DHT22;683;48.738;9.226;2022-07-25T00:02:32;20.90;94.40
1379;DHT22;683;48.738;9.226;2022-07-25T00:05:01;20.80;94.80
1379;DHT22;683;48.738;9.226;2022-07-25T00:07:29;20.70;95.10
1379;DHT22;683;48.738;9.226;2022-07-25T00:09:56;20.60;95.10
1379;DHT22;683;48.738;9.226;2022-07-25T00:12:23;20.50;95.40
1379;DHT22;683;48.738;9.226;2022-07-25T00:14:51;20.50;95.40
1379;DHT22;683;48.738;9.226;2022-07-25T00:17:18;20.40;95.70
1379;DHT22;683;48.738;9.226;2022-07-25T00:19:48;20.40;95.70
1379;DHT22;683;48.738;9.226;2022-07-25T00:22:17;20.40;96.00
1379;DHT22;683;48.738;9.226;2022-07-25T00:24:44;20.40;96.00
1379;DHT22;683;48.738;9.226;2022-07-25T00:27:11;20.40;95.90
1379;DHT22;683;48.738;9.226;2022-07-25T00:29:39;20.40;96.00
1379;DHT22;683;48.738;9.226;2022-07-25T00:32:06;20.40;96.00
1379;DHT22;683;48.738;9.226;2022-07-25T00:34:33;20.40;96.20
1379;DHT22;683;48.738;9.226;2022-07-25T00:37:01;20.40;96.30
1379;DHT22;683;48.738;9.226;2022-07-25T00:39:29;20.40;96.40
1379;DHT22;683;48.738;9.226;2022-07-25T00:41:57;20.30;96.70
1379;DHT22;683;48.738;9.226;2022-07-25T00:44:24;20.20;96.80
1379;DHT22;683;48.738;9.226;2022-07-25T00:46:52;20.20;97.00
1379;DHT22;683;48.738;9.226;2022-07-25T00:49:20;20.20;97.40
1379;DHT22;683;48.738;9.226;2022-07-25T00:51:55;20.20;97.60
1379;DHT22;683;48.738;9.226;2022-07-25T00:54:22;20.10;97.80
1379;DHT22;683;48.738;9.226;2022-07-25T00:56:51;20.10;98.00
1379;DHT22;683;48.738;9.226;2022-07-25T00:59:19;20.10;98.00
1379;DHT22;683;48.738;9.226;2022-07-25T01:01:48;20.10;97.90
1379;DHT22;683;48.738;9.226;2022-07-25T01:04:16;20.00;98.00
1379;DHT22;683;48.738;9.226;2022-07-25T01:06:43;20.00;98.30
1379;DHT22;683;48.738;9.226;2022-07-25T01:09:12;19.90;98.60
1379;DHT22;683;48.738;9.226;2022-07-25T01:11:40;20.00;98.70
1379;DHT22;683;48.738;9.226;2022-07-25T01:14:09;20.00;98.60
1379;DHT22;683;48.738;9.226;2022-07-25T01:16:36;20.00;98.70
1379;DHT22;683;48.738;9.226;2022-07-25T01:19:06;19.90;98.80
1379;DHT22;683;48.738;9.226;2022-07-25T01:21:40;19.80;99.10
1379;DHT22;683;48.738;9.226;2022-07-25T01:24:08;19.70;99.10
1379;DHT22;683;48.738;9.226;2022-07-25T01:26:36;19.70;99.30
1379;DHT22;683;48.738;9.226;2022-07-25T01:29:04;19.70;99.30
1379;DHT22;683;48.738;9.226;2022-07-25T01:31:32;19.70;99.50
1379;DHT22;683;48.738;9.226;2022-07-25T01:33:59;19.70;99.50
1379;DHT22;683;48.738;9.226;2022-07-25T01:36:26;19.70;99.70
1379;DHT22;683;48.738;9.226;2022-07-25T01:38:55;19.70;99.80
1379;DHT22;683;48.738;9.226;2022-07-25T01:41:22;19.60;99.90
1379;DHT22;683;48.738;9.226;2022-07-25T01:43:50;19.60;99.90
1379;DHT22;683;48.738;9.226;2022-07-25T01:46:17;19.60;99.90
1379;DHT22;683;48.738;9.226;2022-07-25T01:48:44;19.50;99.90
1379;DHT22;683;48.738;9.226;2022-07-25T01:54:05;19.50;99.90
1379;DHT22;683;48.738;9.226;2022-07-25T01:56:33;19.40;99.90
1379;DHT22;683;48.738;9.226;2022-07-25T01:59:00;19.40;99.90
1379;DHT22;683;48.738;9.226;2022-07-25T02:01:27;19.30;99.90
1379;DHT22;683;48.738;9.226;2022-07-25T02:03:55;19.30;99.90
1379;DHT22;683;48.738;9.226;2022-07-25T02:06:22;19.30;99.90
1379;DHT22;683;48.738;9.226;2022-07-25T02:08:49;19.30;99.90
1379;DHT22;683;48.738;9.226;2022-07-25T02:11:18;19.20;99.90
1379;DHT22;683;48.738;9.226;2022-07-25T02:13:46;19.30;99.90
1379;DHT22;683;48.738;9.226;2022-07-25T02:16:13;19.20;99.90
1379;DHT22;683;48.738;9.226;2022-07-25T02:18:41;19.20;99.90
1379;DHT22;683;48.738;9.226;2022-07-25T02:21:09;19.20;99.90
1379;DHT22;683;48.738;9.226;2022-07-25T02:23:36;19.10;99.90
1379;DHT22;683;48.738;9.226;2022-07-25T02:26:04;19.10;99.90
1379;DHT22;683;48.738;9.226;2022-07-25T02:28:32;19.10;99.90
1379;DHT22;683;48.738;9.226;2022-07-25T02:31:00;19.00;99.90
1379;DHT22;683;48.738;9.226;2022-07-25T02:33:27;19.00;99.90
1379;DHT22;683;48.738;9.226;2022-07-25T02:35:55;18.90;99.90
1379;DHT22;683;48.738;9.226;2022-07-25T02:38:22;18.90;99.90
1379;DHT22;683;48.738;9.226;2022-07-25T02:40:51;18.90;99.90
1379;DHT22;683;48.738;9.226;2022-07-25T02:43:19;18.90;99.90
1379;DHT22;683;48.738;9.226;2022-07-25T02:45:47;18.90;99.90
1379;DHT22;683;48.738;9.226;2022-07-25T02:48:15;19.00;99.90
1379;DHT22;683;48.738;9.226;2022-07-25T02:50:42;19.00;99.90
1379;DHT22;683;48.738;9.226;2022-07-25T02:53:09;19.00;99.90
1379;DHT22;683;48.738;9.226;2022-07-25T02:55:37;19.00;99.90
1379;DHT22;683;48.738;9.226;2022-07-25T02:58:04;19.00;99.90
1379;DHT22;683;48.738;9.226;2022-07-25T03:00:31;18.90;99.90
1379;DHT22;683;48.738;9.226;2022-07-25T03:03:00;18.90;99.90
1379;DHT22;683;48.738;9.226;2022-07-25T03:05:28;19.00;99.90
1379;DHT22;683;48.738;9.226;2022-07-25T03:07:55;19.00;99.90
1379;DHT22;683;48.738;9.226;2022-07-25T03:10:22;19.00;99.90
1379;DHT22;683;48.738;9.226;2022-07-25T03:12:50;19.00;99.90
1379;DHT22;683;48.738;9.226;2022-07-25T03:15:20;18.90;99.90
1379;DHT22;683;48.738;9.226;2022-07-25T03:17:47;18.90;99.90
1379;DHT22;683;48.738;9.226;2022-07-25T03:20:16;18.90;99.90
1379;DHT22;683;48.738;9.226;2022-07-25T03:22:47;18.90;99.90
1379;DHT22;683;48.738;9.226;2022-07-25T03:25:14;18.90;99.90
1379;DHT22;683;48.738;9.226;2022-07-25T03:27:41;18.80;99.90
1379;DHT22;683;48.738;9.226;2022-07-25T03:30:09;18.80;99.90
1379;DHT22;683;48.738;9.226;2022-07-25T03:32:37;18.70;99.90
1379;DHT22;683;48.738;9.226;2022-07-25T03:35:05;18.70;99.90
1379;DHT22;683;48.738;9.226;2022-07-25T03:37:38;18.60;99.90
1379;DHT22;683;48.738;9.226;2022-07-25T03:40:06;18.60;99.90
1379;DHT22;683;48.738;9.226;2022-07-25T03:42:34;18.60;99.90
1379;DHT22;683;48.738;9.226;2022-07-25T03:45:01;18.50;99.90
1379;DHT22;683;48.738;9.226;2022-07-25T03:47:29;18.50;99.90
1379;DHT22;683;48.738;9.226;2022-07-25T03:49:56;18.60;99.90
1379;DHT22;683;48.738;9.226;2022-07-25T03:52:23;18.60;99.90
1379;DHT22;683;48.738;9.226;2022-07-25T03:54:52;18.60;99.90
1379;DHT22;683;48.738;9.226;2022-07-25T03:57:32;18.60;99.90
1379;DHT22;683;48.738;9.226;2022-07-25T03:59:59;18.60;99.90
1379;DHT22;683;48.738;9.226;2022-07-25T04:02:27;18.60;99.90
1379;DHT22;683;48.738;9.226;2022-07-25T04:04:54;18.60;99.90
1379;DHT22;683;48.738;9.226;2022-07-25T04:07:22;18.60;99.90
1379;DHT22;683;48.738;9.226;2022-07-25T04:09:50;18.60;99.90
1379;DHT22;683;48.738;9.226;2022-07-25T04:12:18;18.60;99.90
1379;DHT22;683;48.738;9.226;2022-07-25T04:14:46;18.70;99.90
1379;DHT22;683;48.738;9.226;2022-07-25T04:17:13;18.70;99.90
1379;DHT22;683;48.738;9.226;2022-07-25T04:19:40;18.70;99.90
1379;DHT22;683;48.738;9.226;2022-07-25T04:22:07;18.90;99.90
1379;DHT22;683;48.738;9.226;2022-07-25T04:24:35;19.00;99.90
1379;DHT22;683;48.738;9.226;2022-07-25T04:27:02;19.00;99.90
1379;DHT22;683;48.738;9.226;2022-07-25T04:29:31;19.00;99.90
1379;DHT22;683;48.738;9.226;2022-07-25T04:31:58;19.10;99.90
1379;DHT22;683;48.738;9.226;2022-07-25T04:34:29;19.10;99.90
1379;DHT22;683;48.738;9.226;2022-07-25T04:36:57;19.20;99.90
1379;DHT22;683;48.738;9.226;2022-07-25T04:39:24;19.30;99.90
1379;DHT22;683;48.738;9.226;2022-07-25T04:41:54;19.40;99.90
1379;DHT22;683;48.738;9.226;2022-07-25T04:44:23;19.50;99.90
1379;DHT22;683;48.738;9.226;2022-07-25T04:46:51;19.50;99.90
1379;DHT22;683;48.738;9.226;2022-07-25T04:49:19;19.50;99.90
1379;DHT22;683;48.738;9.226;2022-07-25T04:51:46;19.60;99.90
1379;DHT22;683;48.738;9.226;2022-07-25T04:54:13;19.70;99.90
1379;DHT22;683;48.738;9.226;2022-07-25T04:56:41;19.80;99.90
1379;DHT22;683;48.738;9.226;2022-07-25T04:59:08;19.90;99.90
1379;DHT22;683;48.738;9.226;2022-07-25T05:01:35;20.00;99.90
1379;DHT22;683;48.738;9.226;2022-07-25T05:04:04;20.20;99.90
1379;DHT22;683;48.738;9.226;2022-07-25T05:06:57;20.30;99.90
1379;DHT22;683;48.738;9.226;2022-07-25T05:09:24;20.50;99.90
1379;DHT22;683;48.738;9.226;2022-07-25T05:11:52;20.70;99.90
1379;DHT22;683;48.738;9.226;2022-07-25T05:14:19;20.80;99.90
1379;DHT22;683;48.738;9.226;2022-07-25T05:16:48;20.80;99.90
1379;DHT22;683;48.738;9.226;2022-07-25T05:19:20;20.90;99.90
1379;DHT22;683;48.738;9.226;2022-07-25T05:21:54;21.10;99.90
1379;DHT22;683;48.738;9.226;2022-07-25T05:24:22;21.20;99.90
1379;DHT22;683;48.738;9.226;2022-07-25T05:26:50;21.40;99.90
1379;DHT22;683;48.738;9.226;2022-07-25T05:29:18;21.50;99.90
1379;DHT22;683;48.738;9.226;2022-07-25T05:31:47;21.60;99.90
1379;DHT22;683;48.738;9.226;2022-07-25T05:34:14;21.70;99.90
1379;DHT22;683;48.738;9.226;2022-07-25T05:36:43;21.80;99.90
1379;DHT22;683;48.738;9.226;2022-07-25T05:39:11;21.90;99.90
1379;DHT22;683;48.738;9.226;2022-07-25T05:41:38;22.10;99.90
1379;DHT22;683;48.738;9.226;2022-07-25T05:44:05;22.10;99.90
1379;DHT22;683;48.738;9.226;2022-07-25T05:46:33;22.20;99.90
1379;DHT22;683;48.738;9.226;2022-07-25T05:49:01;22.30;99.50
1379;DHT22;683;48.738;9.226;2022-07-25T05:51:28;22.40;99.00
1379;DHT22;683;48.738;9.226;2022-07-25T05:53:57;22.50;99.00
1379;DHT22;683;48.738;9.226;2022-07-25T05:56:24;22.60;98.50
1379;DHT22;683;48.738;9.226;2022-07-25T05:58:51;22.70;97.90
1379;DHT22;683;48.738;9.226;2022-07-25T06:01:18;22.80;97.40
1379;DHT22;683;48.738;9.226;2022-07-25T06:03:46;22.80;97.20
1379;DHT22;683;48.738;9.226;2022-07-25T06:06:13;22.90;96.90
1379;DHT22;683;48.738;9.226;2022-07-25T06:08:41;23.00;96.80
1379;DHT22;683;48.738;9.226;2022-07-25T06:11:11;23.10;96.40
1379;DHT22;683;48.738;9.226;2022-07-25T06:13:38;23.30;96.20
1379;DHT22;683;48.738;9.226;2022-07-25T06:16:14;23.50;95.90
1379;DHT22;683;48.738;9.226;2022-07-25T06:18:42;23.50;95.40
1379;DHT22;683;48.738;9.226;2022-07-25T06:21:09;23.60;95.30
1379;DHT22;683;48.738;9.226;2022-07-25T06:23:37;23.70;95.10
1379;DHT22;683;48.738;9.226;2022-07-25T06:26:07;23.80;94.70
1379;DHT22;683;48.738;9.226;2022-07-25T06:29:01;23.80;94.30
1379;DHT22;683;48.738;9.226;2022-07-25T06:31:28;23.90;94.20
1379;DHT22;683;48.738;9.226;2022-07-25T06:33:55;24.00;94.10
1379;DHT22;683;48.738;9.226;2022-07-25T06:36:22;24.10;93.50
1379;DHT22;683;48.738;9.226;2022-07-25T06:38:50;24.20;93.20
1379;DHT22;683;48.738;9.226;2022-07-25T06:41:20;24.20;93.10
1379;DHT22;683;48.738;9.226;2022-07-25T06:43:47;24.30;92.90
1379;DHT22;683;48.738;9.226;2022-07-25T06:46:16;24.40;92.60
1379;DHT22;683;48.738;9.226;2022-07-25T06:48:44;24.60;92.50
1379;DHT22;683;48.738;9.226;2022-07-25T06:51:11;25.00;92.60
1379;DHT22;683;48.738;9.226;2022-07-25T06:53:39;25.20;92.20
1379;DHT22;683;48.738;9.226;2022-07-25T06:56:08;25.50;91.80
1379;DHT22;683;48.738;9.226;2022-07-25T06:58:36;25.90;91.80
1379;DHT22;683;48.738;9.226;2022-07-25T07:01:03;26.20;90.80
1379;DHT22;683;48.738;9.226;2022-07-25T07:03:32;26.40;90.40
1379;DHT22;683;48.738;9.226;2022-07-25T07:06:07;26.50;90.10
1379;DHT22;683;48.738;9.226;2022-07-25T07:08:35;26.50;89.50
1379;DHT22;683;48.738;9.226;2022-07-25T07:11:03;26.40;88.60
1379;DHT22;683;48.738;9.226;2022-07-25T07:13:31;26.40;89.30
1379;DHT22;683;48.738;9.226;2022-07-25T07:15:58;26.50;89.50
1379;DHT22;683;48.738;9.226;2022-07-25T07:18:26;26.50;88.90
1379;DHT22;683;48.738;9.226;2022-07-25T07:20:54;26.50;88.90
1379;DHT22;683;48.738;9.226;2022-07-25T07:23:22;26.40;87.50
1379;DHT22;683;48.738;9.226;2022-07-25T07:25:49;26.40;86.80
1379;DHT22;683;48.738;9.226;2022-07-25T07:28:17;26.40;86.30
1379;DHT22;683;48.738;9.226;2022-07-25T07:30:44;26.30;86.90
1379;DHT22;683;48.738;9.226;2022-07-25T07:33:20;26.30;87.30
1379;DHT22;683;48.738;9.226;2022-07-25T07:35:48;26.40;87.10
1379;DHT22;683;48.738;9.226;2022-07-25T07:38:16;26.50;87.10
1379;DHT22;683;48.738;9.226;2022-07-25T07:40:44;26.70;85.90
1379;DHT22;683;48.738;9.226;2022-07-25T07:43:11;26.80;85.60
1379;DHT22;683;48.738;9.226;2022-07-25T07:45:39;27.00;83.80
1379;DHT22;683;48.738;9.226;2022-07-25T07:48:07;27.10;83.80
1379;DHT22;683;48.738;9.226;2022-07-25T07:50:34;27.40;83.30
1379;DHT22;683;48.738;9.226;2022-07-25T07:53:05;27.60;82.80
1379;DHT22;683;48.738;9.226;2022-07-25T07:55:34;27.50;81.80
1379;DHT22;683;48.738;9.226;2022-07-25T07:58:10;27.60;81.70
1379;DHT22;683;48.738;9.226;2022-07-25T08:00:40;27.70;80.20
1379;DHT22;683;48.738;9.226;2022-07-25T08:03:08;27.60;80.20
1379;DHT22;683;48.738;9.226;2022-07-25T08:05:39;27.70;80.70
1379;DHT22;683;48.738;9.226;2022-07-25T08:08:08;28.00;80.40
1379;DHT22;683;48.738;9.226;2022-07-25T08:10:38;28.20;78.60
1379;DHT22;683;48.738;9.226;2022-07-25T08:13:12;28.30;78.00
1379;DHT22;683;48.738;9.226;2022-07-25T08:15:41;28.30;78.00
1379;DHT22;683;48.738;9.226;2022-07-25T08:18:34;28.50;78.10
1379;DHT22;683;48.738;9.226;2022-07-25T08:21:05;28.50;76.60
1379;DHT22;683;48.738;9.226;2022-07-25T08:23:32;28.60;76.40
1379;DHT22;683;48.738;9.226;2022-07-25T08:26:02;28.60;76.60
1379;DHT22;683;48.738;9.226;2022-07-25T08:28:29;28.80;76.10
1379;DHT22;683;48.738;9.226;2022-07-25T08:30:57;28.90;75.30
1379;DHT22;683;48.738;9.226;2022-07-25T08:33:25;29.10;74.50
1379;DHT22;683;48.738;9.226;2022-07-25T08:35:54;29.20;74.30
1379;DHT22;683;48.738;9.226;2022-07-25T08:38:25;29.30;73.90
1379;DHT22;683;48.738;9.226;2022-07-25T08:40:53;29.30;72.80
1379;DHT22;683;48.738;9.226;2022-07-25T08:43:22;29.40;73.50
1379;DHT22;683;48.738;9.226;2022-07-25T08:45:51;29.50;72.10
1379;DHT22;683;48.738;9.226;2022-07-25T08:48:20;29.50;70.70
1379;DHT22;683;48.738;9.226;2022-07-25T08:50:49;29.60;72.00
1379;DHT22;683;48.738;9.226;2022-07-25T08:53:18;29.70;71.10
1379;DHT22;683;48.738;9.226;2022-07-25T08:55:46;29.90;71.60
1379;DHT22;683;48.738;9.226;2022-07-25T08:58:14;29.90;69.60
1379;DHT22;683;48.738;9.226;2022-07-25T09:01:01;30.00;70.00
1379;DHT22;683;48.738;9.226;2022-07-25T09:03:32;30.00;68.20
1379;DHT22;683;48.738;9.226;2022-07-25T09:06:23;30.30;67.70
1379;DHT22;683;48.738;9.226;2022-07-25T09:08:52;30.50;66.30
1379;DHT22;683;48.738;9.226;2022-07-25T09:11:27;30.60;65.80
1379;DHT22;683;48.738;9.226;2022-07-25T09:14:02;30.80;65.10
1379;DHT22;683;48.738;9.226;2022-07-25T09:16:32;30.60;62.00
1379;DHT22;683;48.738;9.226;2022-07-25T09:19:08;30.70;60.90
1379;DHT22;683;48.738;9.226;2022-07-25T09:21:37;30.70;59.80
1379;DHT22;683;48.738;9.226;2022-07-25T09:24:08;30.90;59.30
1379;DHT22;683;48.738;9.226;2022-07-25T09:26:44;31.00;59.20
1379;DHT22;683;48.738;9.226;2022-07-25T09:29:37;31.10;59.60
1379;DHT22;683;48.738;9.226;2022-07-25T09:32:15;30.90;57.70
1379;DHT22;683;48.738;9.226;2022-07-25T09:34:45;31.00;58.50
1379;DHT22;683;48.738;9.226;2022-07-25T09:37:15;31.20;58.10
1379;DHT22;683;48.738;9.226;2022-07-25T09:40:12;31.30;57.60
1379;DHT22;683;48.738;9.226;2022-07-25T09:42:49;31.50;57.40
1379;DHT22;683;48.738;9.226;2022-07-25T09:45:17;31.50;56.50
1379;DHT22;683;48.738;9.226;2022-07-25T09:47:54;31.60;56.90
1379;DHT22;683;48.738;9.226;2022-07-25T09:50:23;31.70;55.80
1379;DHT22;683;48.738;9.226;2022-07-25T09:52:51;31.80;55.00
1379;DHT22;683;48.738;9.226;2022-07-25T09:55:20;31.80;56.30
1379;DHT22;683;48.738;9.226;2022-07-25T09:57:48;32.00;54.30
1379;DHT22;683;48.738;9.226;2022-07-25T10:00:20;32.10;54.30
1379;DHT22;683;48.738;9.226;2022-07-25T10:02:54;32.20;54.40
1379;DHT22;683;48.738;9.226;2022-07-25T10:05:39;32.30;53.60
1379;DHT22;683;48.738;9.226;2022-07-25T10:08:09;32.40;53.20
1379;DHT22;683;48.738;9.226;2022-07-25T10:10:38;32.40;53.20
1379;DHT22;683;48.738;9.226;2022-07-25T10:13:08;32.40;53.40
1379;DHT22;683;48.738;9.226;2022-07-25T10:16:13;32.50;53.30
1379;DHT22;683;48.738;9.226;2022-07-25T10:18:48;32.50;53.30
1379;DHT22;683;48.738;9.226;2022-07-25T10:21:16;32.60;53.60
1379;DHT22;683;48.738;9.226;2022-07-25T10:23:56;32.60;52.60
1379;DHT22;683;48.738;9.226;2022-07-25T10:26:24;32.80;52.10
1379;DHT22;683;48.738;9.226;2022-07-25T10:28:53;32.90;52.40
1379;DHT22;683;48.738;9.226;2022-07-25T10:31:23;33.10;53.00
1379;DHT22;683;48.738;9.226;2022-07-25T10:33:55;33.20;52.00
1379;DHT22;683;48.738;9.226;2022-07-25T10:36:24;33.10;52.40
1379;DHT22;683;48.738;9.226;2022-07-25T10:39:00;33.30;53.30
1379;DHT22;683;48.738;9.226;2022-07-25T10:41:29;33.40;51.90
1379;DHT22;683;48.738;9.226;2022-07-25T10:43:59;33.70;52.10
1379;DHT22;683;48.738;9.226;2022-07-25T10:46:28;33.80;51.00
1379;DHT22;683;48.738;9.226;2022-07-25T10:49:00;33.70;49.90
1379;DHT22;683;48.738;9.226;2022-07-25T10:51:30;33.70;50.30
1379;DHT22;683;48.738;9.226;2022-07-25T10:53:58;33.70;49.70
1379;DHT22;683;48.738;9.226;2022-07-25T10:56:27;33.70;49.50
1379;DHT22;683;48.738;9.226;2022-07-25T10:58:56;33.80;50.50
1379;DHT22;683;48.738;9.226;2022-07-25T11:01:24;33.90;49.60
1379;DHT22;683;48.738;9.226;2022-07-25T11:03:53;33.80;49.20
1379;DHT22;683;48.738;9.226;2022-07-25T11:06:34;33.80;50.30
1379;DHT22;683;48.738;9.226;2022-07-25T11:09:03;33.90;47.60
1379;DHT22;683;48.738;9.226;2022-07-25T11:11:42;34.20;47.30
1379;DHT22;683;48.738;9.226;2022-07-25T11:14:19;34.60;47.20
1379;DHT22;683;48.738;9.226;2022-07-25T11:16:49;34.60;46.90
1379;DHT22;683;48.738;9.226;2022-07-25T11:19:19;34.90;49.30
1379;DHT22;683;48.738;9.226;2022-07-25T11:21:50;35.20;48.50
1379;DHT22;683;48.738;9.226;2022-07-25T11:24:18;35.20;47.90
1379;DHT22;683;48.738;9.226;2022-07-25T11:26:47;35.20;47.70
1379;DHT22;683;48.738;9.226;2022-07-25T11:29:19;35.30;47.00
1379;DHT22;683;48.738;9.226;2022-07-25T11:32:11;35.20;47.80
1379;DHT22;683;48.738;9.226;2022-07-25T11:34:47;35.30;47.00
1379;DHT22;683;48.738;9.226;2022-07-25T11:37:16;35.20;45.80
1379;DHT22;683;48.738;9.226;2022-07-25T11:39:45;35.10;47.20
1379;DHT22;683;48.738;9.226;2022-07-25T11:42:14;35.30;48.30
1379;DHT22;683;48.738;9.226;2022-07-25T11:44:45;35.70;47.00
1379;DHT22;683;48.738;9.226;2022-07-25T11:47:22;36.30;45.90
1379;DHT22;683;48.738;9.226;2022-07-25T11:49:55;36.60;44.70
1379;DHT22;683;48.738;9.226;2022-07-25T11:52:27;36.90;37.80
1379;DHT22;683;48.738;9.226;2022-07-25T11:55:12;36.90;41.30
1379;DHT22;683;48.738;9.226;2022-07-25T11:57:41;36.90;37.70
1379;DHT22;683;48.738;9.226;2022-07-25T12:00:15;36.80;36.30
1379;DHT22;683;48.738;9.226;2022-07-25T12:02:43;37.00;38.90
1379;DHT22;683;48.738;9.226;2022-07-25T12:05:13;36.90;38.90
1379;DHT22;683;48.738;9.226;2022-07-25T12:07:43;36.70;40.90
1379;DHT22;683;48.738;9.226;2022-07-25T12:10:16;36.90;42.00
1379;DHT22;683;48.738;9.226;2022-07-25T12:12:51;37.80;40.70
1379;DHT22;683;48.738;9.226;2022-07-25T12:15:26;38.10;36.70
1379;DHT22;683;48.738;9.226;2022-07-25T12:17:54;37.70;34.90
1379;DHT22;683;48.738;9.226;2022-07-25T12:20:23;37.30;35.80
1379;DHT22;683;48.738;9.226;2022-07-25T12:22:54;37.50;35.20
1379;DHT22;683;48.738;9.226;2022-07-25T12:25:22;37.30;34.90
1379;DHT22;683;48.738;9.226;2022-07-25T12:27:50;36.70;36.10
1379;DHT22;683;48.738;9.226;2022-07-25T12:30:17;36.20;36.50
1379;DHT22;683;48.738;9.226;2022-07-25T12:32:46;36.30;36.70
1379;DHT22;683;48.738;9.226;2022-07-25T12:35:17;36.90;36.00
1379;DHT22;683;48.738;9.226;2022-07-25T12:37:44;37.80;34.00
1379;DHT22;683;48.738;9.226;2022-07-25T12:40:14;38.30;33.50
1379;DHT22;683;48.738;9.226;2022-07-25T12:42:42;38.80;33.00
1379;DHT22;683;48.738;9.226;2022-07-25T12:45:10;39.00;33.00
1379;DHT22;683;48.738;9.226;2022-07-25T12:47:37;39.60;33.90
1379;DHT22;683;48.738;9.226;2022-07-25T12:50:06;39.30;35.70
1379;DHT22;683;48.738;9.226;2022-07-25T12:52:34;38.80;37.40
1379;DHT22;683;48.738;9.226;2022-07-25T12:55:34;38.70;37.90
1379;DHT22;683;48.738;9.226;2022-07-25T12:58:27;38.30;38.20
1379;DHT22;683;48.738;9.226;2022-07-25T13:00:55;37.90;37.90
1379;DHT22;683;48.738;9.226;2022-07-25T13:03:22;37.00;38.50
1379;DHT22;683;48.738;9.226;2022-07-25T13:05:50;35.80;40.20
1379;DHT22;683;48.738;9.226;2022-07-25T13:08:17;35.40;41.60
1379;DHT22;683;48.738;9.226;2022-07-25T13:10:46;35.30;42.50
1379;DHT22;683;48.738;9.226;2022-07-25T13:13:14;35.50;42.50
1379;DHT22;683;48.738;9.226;2022-07-25T13:15:41;35.30;42.10
1379;DHT22;683;48.738;9.226;2022-07-25T13:18:09;35.30;42.50
1379;DHT22;683;48.738;9.226;2022-07-25T13:20:36;35.40;42.10
1379;DHT22;683;48.738;9.226;2022-07-25T13:23:03;35.80;42.20
1379;DHT22;683;48.738;9.226;2022-07-25T13:25:31;37.00;41.80
1379;DHT22;683;48.738;9.226;2022-07-25T13:28:27;38.00;39.50
1379;DHT22;683;48.738;9.226;2022-07-25T13:31:02;38.30;39.20
1379;DHT22;683;48.738;9.226;2022-07-25T13:33:31;37.60;37.50
1379;DHT22;683;48.738;9.226;2022-07-25T13:36:14;36.90;38.70
1379;DHT22;683;48.738;9.226;2022-07-25T13:38:42;36.10;40.00
1379;DHT22;683;48.738;9.226;2022-07-25T13:41:12;35.70;40.10
1379;DHT22;683;48.738;9.226;2022-07-25T13:43:40;35.70;38.30
1379;DHT22;683;48.738;9.226;2022-07-25T13:46:08;36.90;37.30
1379;DHT22;683;48.738;9.226;2022-07-25T13:48:39;37.60;36.40
1379;DHT22;683;48.738;9.226;2022-07-25T13:51:07;37.40;35.30
1379;DHT22;683;48.738;9.226;2022-07-25T13:53:34;37.00;36.50
1379;DHT22;683;48.738;9.226;2022-07-25T13:56:02;37.00;36.80
1379;DHT22;683;48.738;9.226;2022-07-25T13:58:31;36.60;37.60
1379;DHT22;683;48.738;9.226;2022-07-25T14:01:00;36.80;37.20
1379;DHT22;683;48.738;9.226;2022-07-25T14:03:32;36.90;37.10
1379;DHT22;683;48.738;9.226;2022-07-25T14:06:03;36.40;38.20
1379;DHT22;683;48.738;9.226;2022-07-25T14:08:31;35.70;38.30
1379;DHT22;683;48.738;9.226;2022-07-25T14:10:59;35.40;39.00
1379;DHT22;683;48.738;9.226;2022-07-25T14:13:28;34.90;39.70
1379;DHT22;683;48.738;9.226;2022-07-25T14:15:57;34.80;39.70
1379;DHT22;683;48.738;9.226;2022-07-25T14:18:26;34.50;40.60
1379;DHT22;683;48.738;9.226;2022-07-25T14:20:59;34.40;41.50
1379;DHT22;683;48.738;9.226;2022-07-25T14:23:26;34.00;43.40
1379;DHT22;683;48.738;9.226;2022-07-25T14:25:54;33.80;42.10
1379;DHT22;683;48.738;9.226;2022-07-25T14:28:21;33.60;42.50
1379;DHT22;683;48.738;9.226;2022-07-25T14:30:49;33.50;42.60
1379;DHT22;683;48.738;9.226;2022-07-25T14:33:19;33.40;42.90
1379;DHT22;683;48.738;9.226;2022-07-25T14:35:48;33.50;43.00
1379;DHT22;683;48.738;9.226;2022-07-25T14:38:16;35.00;42.10
1379;DHT22;683;48.738;9.226;2022-07-25T14:40:43;37.10;39.00
1379;DHT22;683;48.738;9.226;2022-07-25T14:43:11;38.90;36.00
1379;DHT22;683;48.738;9.226;2022-07-25T14:45:40;39.20;35.40
1379;DHT22;683;48.738;9.226;2022-07-25T14:48:33;40.40;35.00
1379;DHT22;683;48.738;9.226;2022-07-25T14:51:03;40.30;33.10
1379;DHT22;683;48.738;9.226;2022-07-25T14:53:30;40.20;34.20
1379;DHT22;683;48.738;9.226;2022-07-25T14:55:58;40.80;33.30
1379;DHT22;683;48.738;9.226;2022-07-25T14:58:26;40.10;33.60
1379;DHT22;683;48.738;9.226;2022-07-25T15:00:53;40.80;34.60
1379;DHT22;683;48.738;9.226;2022-07-25T15:03:21;40.50;33.30
1379;DHT22;683;48.738;9.226;2022-07-25T15:05:48;39.20;34.80
1379;DHT22;683;48.738;9.226;2022-07-25T15:08:24;38.10;36.00
1379;DHT22;683;48.738;9.226;2022-07-25T15:10:52;36.80;37.60
1379;DHT22;683;48.738;9.226;2022-07-25T15:13:19;36.00;38.80
1379;DHT22;683;48.738;9.226;2022-07-25T15:15:46;36.30;39.60
1379;DHT22;683;48.738;9.226;2022-07-25T15:18:14;37.80;38.00
1379;DHT22;683;48.738;9.226;2022-07-25T15:20:41;37.90;36.60
1379;DHT22;683;48.738;9.226;2022-07-25T15:23:16;37.80;37.10
1379;DHT22;683;48.738;9.226;2022-07-25T15:25:47;37.10;37.60
1379;DHT22;683;48.738;9.226;2022-07-25T15:28:15;36.00;39.30
1379;DHT22;683;48.738;9.226;2022-07-25T15:30:44;35.60;40.20
1379;DHT22;683;48.738;9.226;2022-07-25T15:33:12;34.90;41.30
1379;DHT22;683;48.738;9.226;2022-07-25T15:35:40;34.50;42.60
1379;DHT22;683;48.738;9.226;2022-07-25T15:38:16;34.20;42.80
1379;DHT22;683;48.738;9.226;2022-07-25T15:40:44;34.00;43.50
1379;DHT22;683;48.738;9.226;2022-07-25T15:43:13;34.00;44.20
1379;DHT22;683;48.738;9.226;2022-07-25T15:45:42;34.10;45.00
1379;DHT22;683;48.738;9.226;2022-07-25T15:48:12;34.40;45.80
1379;DHT22;683;48.738;9.226;2022-07-25T15:50:41;35.40;45.20
1379;DHT22;683;48.738;9.226;2022-07-25T15:53:10;36.40;44.00
1379;DHT22;683;48.738;9.226;2022-07-25T15:55:39;36.60;43.60
1379;DHT22;683;48.738;9.226;2022-07-25T15:58:07;35.20;45.20
1379;DHT22;683;48.738;9.226;2022-07-25T16:00:37;33.50;47.30
1379;DHT22;683;48.738;9.226;2022-07-25T16:03:04;32.60;49.30
1379;DHT22;683;48.738;9.226;2022-07-25T16:05:32;32.00;50.90
1379;DHT22;683;48.738;9.226;2022-07-25T16:08:00;31.80;51.10
1379;DHT22;683;48.738;9.226;2022-07-25T16:10:28;31.40;52.10
1379;DHT22;683;48.738;9.226;2022-07-25T16:12:55;31.20;52.70
1379;DHT22;683;48.738;9.226;2022-07-25T16:15:23;31.00;53.00
1379;DHT22;683;48.738;9.226;2022-07-25T16:17:52;30.80;53.60
1379;DHT22;683;48.738;9.226;2022-07-25T16:20:21;30.60;54.10
1379;DHT22;683;48.738;9.226;2022-07-25T16:22:50;30.40;54.50
1379;DHT22;683;48.738;9.226;2022-07-25T16:25:21;30.60;54.00
1379;DHT22;683;48.738;9.226;2022-07-25T16:27:57;30.70;54.00
1379;DHT22;683;48.738;9.226;2022-07-25T16:30:25;31.10;53.60
1379;DHT22;683;48.738;9.226;2022-07-25T16:32:54;31.30;52.40
1379;DHT22;683;48.738;9.226;2022-07-25T16:35:22;31.20;52.50